Terminal Aerodrome Forecast
Issued by NWS Duluth, MN

Home | Current Version | Previous Version | Text Only | Print | Product List | Glossary Off
Versions: 1 2 3 4 5 6 7 8 9 10 11 12 13 14 15 16 17 18 19 20 21

000
FTUS43 KDLH 021808 AAA
TAFDLH
TAF AMD
KDLH 021808Z 0218/0318 31012G19KT P6SM FEW025 SCT080
     FM022000 32014G22KT P6SM VCSH BKN040
     FM022200 32015G25KT P6SM SCT060
     FM030200 30006KT P6SM SKC
     FM031500 31014KT P6SM BKN050=

USA.gov is the U.S. government's official web portal to all federal, state and local government web resources and services.